createdAt,value
2022-08-03T00:01:39.121Z,15.18
2022-08-03T00:03:41.075Z,15.16
2022-08-03T00:06:04.558Z,15.13
2022-08-03T00:08:06.014Z,15.04
2022-08-03T00:10:15.933Z,15.10
2022-08-03T00:12:18.072Z,15.08
2022-08-03T00:14:21.367Z,15.06
2022-08-03T00:16:25.336Z,15.20
2022-08-03T00:18:27.316Z,15.17
2022-08-03T00:20:29.275Z,15.21
2022-08-03T00:22:40.430Z,15.17
2022-08-03T00:24:42.315Z,15.23
2022-08-03T00:26:44.212Z,15.06
2022-08-03T00:28:46.150Z,15.00
2022-08-03T00:30:56.076Z,15.02
2022-08-03T00:32:59.423Z,14.93
2022-08-03T00:35:08.129Z,14.94
2022-08-03T00:37:11.111Z,14.89
2022-08-03T00:39:13.123Z,14.87
2022-08-03T00:41:15.735Z,14.85
2022-08-03T00:43:17.850Z,14.93
2022-08-03T00:45:21.786Z,14.91
2022-08-03T00:47:23.633Z,14.83
2022-08-03T00:49:25.630Z,14.78
2022-08-03T00:51:28.589Z,14.78
2022-08-03T00:53:32.280Z,14.79
2022-08-03T00:55:37.374Z,14.73
2022-08-03T00:57:39.768Z,14.72
2022-08-03T00:59:41.671Z,14.64
2022-08-03T01:01:46.644Z,14.71
2022-08-03T01:03:54.466Z,14.77
2022-08-03T01:06:17.303Z,14.83
2022-08-03T01:08:23.629Z,14.77
2022-08-03T01:10:40.124Z,14.76
2022-08-03T01:12:51.798Z,14.75
2022-08-03T01:15:06.304Z,14.69
2022-08-03T01:17:17.974Z,14.62
2022-08-03T01:19:40.117Z,14.60
2022-08-03T01:21:52.231Z,14.70
2022-08-03T01:24:13.988Z,14.69
2022-08-03T01:26:49.810Z,14.56
2022-08-03T01:29:24.549Z,14.42
2022-08-03T01:33:02.617Z,14.49
2022-08-03T01:34:16.570Z,14.58
2022-08-03T01:36:25.095Z,14.54
2022-08-03T01:38:42.504Z,14.70
2022-08-03T01:40:49.429Z,14.71
2022-08-03T01:42:56.251Z,14.73
2022-08-03T01:45:01.756Z,14.73
2022-08-03T01:47:06.803Z,14.69
2022-08-03T01:49:12.652Z,14.58
2022-08-03T01:51:19.867Z,14.57
2022-08-03T01:53:23.705Z,14.48
2022-08-03T01:55:28.552Z,14.31
2022-08-03T01:57:32.119Z,14.27
2022-08-03T01:59:36.975Z,14.37
2022-08-03T02:02:28.835Z,14.32
2022-08-03T02:04:06.969Z,14.23
2022-08-03T02:06:58.930Z,14.21
2022-08-03T02:08:37.709Z,14.34
2022-08-03T02:10:43.154Z,14.45
2022-08-03T02:12:51.212Z,14.38
2022-08-03T02:14:56.762Z,14.34
2022-08-03T02:16:59.808Z,14.41
2022-08-03T02:19:06.900Z,14.26
2022-08-03T02:21:55.854Z,14.21
2022-08-03T02:23:39.200Z,14.16
2022-08-03T02:25:46.330Z,14.16
2022-08-03T02:28:10.894Z,14.00
2022-08-03T02:30:14.679Z,14.11
2022-08-03T02:32:25.160Z,14.07
2022-08-03T02:34:32.520Z,14.10
2022-08-03T02:36:39.798Z,14.14
2022-08-03T02:38:49.181Z,14.01
2022-08-03T02:40:56.092Z,14.02
2022-08-03T02:43:08.144Z,13.92
2022-08-03T02:45:15.867Z,13.96
2022-08-03T02:47:21.561Z,13.96
2022-08-03T02:49:41.076Z,14.08
2022-08-03T02:51:55.146Z,14.10
2022-08-03T02:54:01.115Z,14.04
2022-08-03T02:56:06.046Z,13.95
2022-08-03T02:58:09.764Z,14.04
2022-08-03T03:00:13.513Z,13.99
2022-08-03T03:02:30.417Z,13.92
2022-08-03T03:04:34.357Z,13.99
2022-08-03T03:06:44.520Z,14.04
2022-08-03T03:08:50.442Z,14.19
2022-08-03T03:10:56.107Z,14.13
2022-08-03T03:13:06.345Z,14.07
2022-08-03T03:15:10.976Z,14.17
2022-08-03T03:17:15.467Z,14.19
2022-08-03T03:19:19.444Z,14.30
2022-08-03T03:21:22.743Z,14.39
2022-08-03T03:23:26.393Z,14.40
2022-08-03T03:25:32.362Z,14.25
2022-08-03T03:27:35.262Z,14.31
2022-08-03T03:29:43.315Z,14.35
2022-08-03T03:31:45.583Z,14.32
2022-08-03T03:33:48.389Z,14.44
2022-08-03T03:35:57.908Z,14.56
2022-08-03T03:37:59.925Z,14.49
2022-08-03T03:40:09.179Z,14.62
2022-08-03T03:42:12.265Z,14.71
2022-08-03T03:44:14.396Z,14.77
2022-08-03T03:46:16.679Z,14.79
2022-08-03T03:48:20.341Z,14.80
2022-08-03T03:50:24.271Z,14.85
2022-08-03T03:52:26.236Z,15.01
2022-08-03T03:54:39.866Z,15.14
2022-08-03T03:56:42.896Z,15.22
2022-08-03T03:58:44.908Z,15.33
2022-08-03T04:00:56.016Z,15.36
2022-08-03T04:02:58.106Z,15.37
2022-08-03T04:05:18.832Z,15.50
2022-08-03T04:07:43.188Z,15.65
2022-08-03T04:10:14.891Z,15.66
2022-08-03T04:12:19.859Z,15.67
2022-08-03T04:14:33.970Z,15.77
2022-08-03T04:16:43.651Z,15.79
2022-08-03T04:18:54.228Z,15.77
2022-08-03T04:21:01.791Z,15.92
2022-08-03T04:23:04.933Z,15.94
2022-08-03T04:25:19.681Z,15.96
2022-08-03T04:27:25.599Z,15.99
2022-08-03T04:29:31.097Z,16.14
2022-08-03T04:31:33.924Z,16.27
2022-08-03T04:33:39.073Z,16.44
2022-08-03T04:36:02.222Z,16.67
2022-08-03T04:38:07.924Z,16.92
2022-08-03T04:40:14.811Z,17.02
2022-08-03T04:42:20.135Z,16.98
2022-08-03T04:44:28.178Z,17.02
2022-08-03T04:46:34.994Z,17.01
2022-08-03T04:48:37.642Z,16.99
2022-08-03T04:50:41.206Z,16.96
2022-08-03T04:52:43.441Z,16.92
2022-08-03T04:54:50.699Z,16.82
2022-08-03T04:56:53.036Z,16.78
2022-08-03T04:58:55.021Z,16.72
2022-08-03T05:00:56.915Z,16.71
2022-08-03T05:02:59.058Z,16.73
2022-08-03T05:05:02.076Z,16.75
2022-08-03T05:07:11.719Z,16.76
2022-08-03T05:09:14.665Z,16.78
2022-08-03T05:11:18.574Z,16.82
2022-08-03T05:13:20.505Z,16.89
2022-08-03T05:15:22.731Z,16.87
2022-08-03T05:17:24.622Z,16.96
2022-08-03T05:19:26.714Z,16.96
2022-08-03T05:21:51.886Z,17.07
2022-08-03T05:23:50.641Z,17.01
2022-08-03T05:25:52.528Z,17.02
2022-08-03T05:27:54.537Z,17.12
2022-08-03T05:29:56.547Z,17.36
2022-08-03T05:32:18.828Z,17.98
2022-08-03T05:34:21.005Z,18.18
2022-08-03T05:36:25.034Z,18.07
2022-08-03T05:38:33.172Z,18.02
2022-08-03T05:40:36.382Z,18.09
2022-08-03T05:42:39.130Z,18.08
2022-08-03T05:44:42.400Z,17.87
2022-08-03T05:46:44.288Z,17.80
2022-08-03T05:48:46.428Z,17.70
2022-08-03T05:50:48.506Z,17.80
2022-08-03T05:52:50.771Z,18.06
2022-08-03T05:54:56.877Z,18.44
2022-08-03T05:57:00.606Z,18.67
2022-08-03T05:59:16.533Z,19.26
2022-08-03T06:01:24.782Z,19.93
2022-08-03T06:03:27.084Z,19.99
2022-08-03T06:05:30.073Z,20.11
2022-08-03T06:07:32.959Z,20.83
2022-08-03T06:10:36.105Z,21.08
2022-08-03T06:11:58.831Z,21.12
2022-08-03T06:14:00.881Z,21.95
2022-08-03T06:16:03.003Z,21.99
2022-08-03T06:18:05.006Z,22.23
2022-08-03T06:20:08.691Z,22.83
2022-08-03T06:22:10.723Z,22.46
2022-08-03T06:24:12.945Z,22.58
2022-08-03T06:26:17.349Z,22.57
2022-08-03T06:28:53.165Z,22.13
2022-08-03T06:30:48.222Z,22.46
2022-08-03T06:32:52.537Z,22.35
2022-08-03T06:34:54.607Z,22.60
2022-08-03T06:37:01.733Z,22.90
2022-08-03T06:39:05.461Z,22.18
2022-08-03T06:41:07.499Z,22.18
2022-08-03T06:43:12.727Z,22.55
2022-08-03T06:45:16.064Z,22.61
2022-08-03T06:47:18.995Z,23.35
2022-08-03T06:49:20.968Z,22.43
2022-08-03T06:52:03.742Z,21.85
2022-08-03T06:53:45.878Z,21.51
2022-08-03T06:55:52.445Z,21.26
2022-08-03T06:57:59.933Z,21.73
2022-08-03T07:00:10.829Z,21.55
2022-08-03T07:02:19.065Z,22.24
2022-08-03T07:04:21.489Z,22.58
2022-08-03T07:06:23.617Z,23.11
2022-08-03T07:08:34.077Z,23.71
2022-08-03T07:10:36.518Z,24.03
2022-08-03T07:12:52.604Z,24.26
2022-08-03T07:15:02.691Z,23.86
2022-08-03T07:17:11.612Z,24.69
2022-08-03T07:19:14.129Z,24.26
2022-08-03T07:21:17.290Z,24.47
2022-08-03T07:23:19.491Z,24.31
2022-08-03T07:25:22.691Z,24.27
2022-08-03T07:27:27.158Z,24.64
2022-08-03T07:29:29.644Z,24.50
2022-08-03T07:31:38.762Z,24.48
2022-08-03T07:33:40.661Z,24.61
2022-08-03T07:35:42.844Z,25.13
2022-08-03T07:37:54.308Z,25.46
2022-08-03T07:39:58.394Z,25.85
2022-08-03T07:42:00.330Z,26.01
2022-08-03T07:44:02.349Z,26.41
2022-08-03T07:46:04.251Z,26.21
2022-08-03T07:48:12.167Z,26.30
2022-08-03T07:50:14.689Z,26.03
2022-08-03T07:52:35.458Z,25.52
2022-08-03T07:54:39.383Z,25.93
2022-08-03T07:56:41.389Z,26.73
2022-08-03T07:58:52.262Z,26.90
2022-08-03T08:00:54.469Z,25.73
2022-08-03T08:02:56.524Z,25.65
2022-08-03T08:05:03.539Z,25.61
2022-08-03T08:07:10.002Z,25.24
2022-08-03T08:09:19.019Z,24.41
2022-08-03T08:11:22.522Z,24.17
2022-08-03T08:13:25.076Z,24.32
2022-08-03T08:15:28.535Z,24.17
2022-08-03T08:17:30.624Z,24.27
2022-08-03T08:19:32.855Z,24.20
2022-08-03T08:21:54.018Z,23.94
2022-08-03T08:24:10.743Z,23.54
2022-08-03T08:26:17.311Z,23.66
2022-08-03T08:28:32.833Z,23.54
2022-08-03T08:30:35.705Z,23.40
2022-08-03T08:32:37.738Z,23.43
2022-08-03T08:34:40.615Z,23.59
2022-08-03T08:36:42.892Z,24.00
2022-08-03T08:38:47.544Z,24.57
2022-08-03T08:40:51.017Z,25.37
2022-08-03T08:43:00.176Z,25.58
2022-08-03T08:45:02.523Z,26.27
2022-08-03T08:47:08.450Z,26.06
2022-08-03T08:49:12.792Z,26.85
2022-08-03T08:51:19.735Z,27.86
2022-08-03T08:53:28.147Z,27.93
2022-08-03T08:55:58.384Z,27.63
2022-08-03T08:58:02.359Z,27.62
2022-08-03T09:00:14.696Z,28.20
2022-08-03T09:02:16.857Z,27.79
2022-08-03T09:04:20.457Z,28.18
2022-08-03T09:06:24.633Z,28.19
2022-08-03T09:08:26.740Z,28.34
2022-08-03T09:10:29.891Z,28.58
2022-08-03T09:12:41.991Z,28.50
2022-08-03T09:15:00.844Z,28.36
2022-08-03T09:17:06.445Z,28.47
2022-08-03T09:19:14.159Z,28.84
2022-08-03T09:21:31.782Z,28.63
2022-08-03T09:24:04.708Z,27.61
2022-08-03T09:26:09.126Z,27.33
2022-08-03T09:28:59.761Z,27.12
2022-08-03T09:30:59.512Z,27.39
2022-08-03T09:33:03.276Z,27.58
2022-08-03T09:35:05.803Z,27.86
2022-08-03T09:37:23.296Z,28.15
2022-08-03T09:39:46.035Z,27.67
2022-08-03T09:42:09.309Z,28.16
2022-08-03T09:44:24.095Z,26.78
2022-08-03T09:46:31.958Z,26.82
2022-08-03T09:48:37.500Z,26.58
2022-08-03T09:50:58.544Z,26.63
2022-08-03T09:53:12.509Z,25.71
2022-08-03T09:56:33.878Z,26.08
2022-08-03T09:57:38.187Z,26.70
2022-08-03T09:59:41.633Z,26.55
2022-08-03T10:01:47.212Z,26.27
2022-08-03T10:04:03.868Z,26.12
2022-08-03T10:06:28.829Z,25.82
2022-08-03T10:08:32.612Z,26.81
2022-08-03T10:10:44.255Z,26.61
2022-08-03T10:12:52.637Z,25.41
2022-08-03T10:14:56.397Z,25.98
2022-08-03T10:16:58.331Z,25.84
2022-08-03T10:19:00.309Z,25.85
2022-08-03T10:21:10.714Z,26.28
2022-08-03T10:23:15.268Z,26.05
2022-08-03T10:25:19.301Z,26.49
2022-08-03T10:27:23.653Z,26.64
2022-08-03T10:29:29.325Z,26.59
2022-08-03T10:31:38.951Z,26.52
2022-08-03T10:33:59.651Z,26.42
2022-08-03T10:36:03.234Z,26.46
2022-08-03T10:38:12.133Z,26.91
2022-08-03T10:40:33.475Z,26.74
2022-08-03T10:42:41.686Z,26.45
2022-08-03T10:44:43.891Z,26.56
2022-08-03T10:46:51.176Z,26.14
2022-08-03T10:48:54.909Z,25.92
2022-08-03T10:50:57.156Z,25.55
2022-08-03T10:53:07.225Z,25.58
2022-08-03T10:55:56.995Z,25.49
2022-08-03T10:58:00.710Z,25.81
2022-08-03T11:00:06.457Z,26.05
2022-08-03T11:02:10.156Z,26.81
2022-08-03T11:04:17.083Z,26.95
2022-08-03T11:06:25.862Z,27.25
2022-08-03T11:08:35.649Z,27.19
2022-08-03T11:10:37.784Z,26.49
2022-08-03T11:12:40.310Z,26.39
2022-08-03T11:14:49.348Z,26.31
2022-08-03T11:17:07.590Z,26.78
2022-08-03T11:19:22.641Z,26.92
2022-08-03T11:21:52.013Z,27.05
2022-08-03T11:24:05.592Z,27.24
2022-08-03T11:26:13.387Z,27.10
2022-08-03T11:28:29.055Z,27.01
2022-08-03T11:30:32.570Z,27.02
2022-08-03T11:32:42.398Z,26.97
2022-08-03T11:35:16.813Z,26.85
2022-08-03T11:37:28.819Z,26.92
2022-08-03T11:39:45.979Z,26.82
2022-08-03T11:41:48.006Z,26.61
2022-08-03T11:43:52.025Z,25.99
2022-08-03T11:46:06.329Z,25.51
2022-08-03T11:48:16.804Z,25.37
2022-08-03T11:50:20.231Z,25.18
2022-08-03T11:52:26.990Z,25.16
2022-08-03T11:54:31.908Z,25.21
2022-08-03T11:56:50.491Z,26.14
2022-08-03T11:59:17.983Z,26.17
2022-08-03T12:01:22.978Z,26.51
2022-08-03T12:03:25.187Z,26.01
2022-08-03T12:05:51.262Z,25.72
2022-08-03T12:08:03.714Z,25.79
2022-08-03T12:10:09.292Z,26.65
2022-08-03T12:12:12.063Z,26.82
2022-08-03T12:14:50.242Z,27.19
2022-08-03T12:16:49.037Z,26.65
2022-08-03T12:19:02.682Z,26.72
2022-08-03T12:21:07.801Z,26.78
2022-08-03T12:23:13.106Z,26.73
2022-08-03T12:25:39.765Z,25.93
2022-08-03T12:27:42.015Z,25.84
2022-08-03T12:29:44.287Z,25.51
2022-08-03T12:32:01.799Z,25.69
2022-08-03T12:34:07.340Z,26.27
2022-08-03T12:36:11.249Z,26.26
2022-08-03T12:38:14.097Z,25.98
2022-08-03T12:40:28.136Z,25.91
2022-08-03T12:42:35.080Z,26.10
2022-08-03T12:44:38.234Z,26.20
2022-08-03T12:46:47.399Z,26.24
2022-08-03T12:49:05.043Z,26.57
2022-08-03T12:51:11.658Z,26.78
2022-08-03T12:53:28.951Z,26.96
2022-08-03T12:56:04.827Z,26.92
2022-08-03T12:58:04.866Z,26.86
2022-08-03T13:00:28.777Z,26.65
2022-08-03T13:02:33.784Z,26.60
2022-08-03T13:04:37.471Z,26.50
2022-08-03T13:06:41.556Z,26.22
2022-08-03T13:08:46.229Z,26.43
2022-08-03T13:10:48.833Z,26.35
2022-08-03T13:12:50.837Z,26.26
2022-08-03T13:14:56.279Z,26.42
2022-08-03T13:17:03.571Z,26.42
2022-08-03T13:19:06.453Z,26.53
2022-08-03T13:21:20.776Z,26.78
2022-08-03T13:23:22.932Z,26.81
2022-08-03T13:25:24.885Z,26.58
2022-08-03T13:28:04.478Z,26.77
2022-08-03T13:29:51.420Z,26.75
2022-08-03T13:31:55.353Z,27.02
2022-08-03T13:33:58.293Z,26.90
2022-08-03T13:36:00.259Z,27.15
2022-08-03T13:38:05.356Z,27.08
2022-08-03T13:40:08.725Z,27.24
2022-08-03T13:42:13.702Z,27.22
2022-08-03T13:44:29.090Z,27.21
2022-08-03T13:46:31.828Z,27.22
2022-08-03T13:48:37.104Z,27.29
2022-08-03T13:50:43.201Z,27.22
2022-08-03T13:52:51.057Z,27.00
2022-08-03T13:54:54.096Z,26.98
2022-08-03T13:57:00.418Z,27.16
2022-08-03T13:59:22.911Z,27.03
2022-08-03T14:01:53.662Z,26.97
2022-08-03T14:03:50.672Z,26.81
2022-08-03T14:05:52.767Z,26.98
2022-08-03T14:07:56.844Z,27.07
2022-08-03T14:10:09.463Z,27.26
2022-08-03T14:12:12.423Z,27.17
2022-08-03T14:14:15.588Z,27.31
2022-08-03T14:16:17.655Z,27.20
2022-08-03T14:18:28.657Z,27.09
2022-08-03T14:20:37.994Z,27.24
2022-08-03T14:22:41.641Z,27.12
2022-08-03T14:24:44.763Z,27.26
2022-08-03T14:26:46.833Z,27.27
2022-08-03T14:28:49.035Z,27.13
2022-08-03T14:30:53.140Z,27.11
2022-08-03T14:32:57.967Z,27.20
2022-08-03T14:35:03.871Z,27.12
2022-08-03T14:37:06.191Z,27.17
2022-08-03T14:39:11.176Z,26.87
2022-08-03T14:41:20.144Z,27.03
2022-08-03T14:43:24.813Z,27.15
2022-08-03T14:45:28.022Z,27.15
2022-08-03T14:47:33.558Z,27.15
2022-08-03T14:50:34.540Z,27.26
2022-08-03T14:52:24.435Z,27.09
2022-08-03T14:54:31.114Z,27.10
2022-08-03T14:56:33.106Z,27.22
2022-08-03T14:58:36.094Z,27.20
2022-08-03T15:00:40.086Z,27.05
2022-08-03T15:02:42.047Z,26.87
2022-08-03T15:04:50.045Z,26.96
2022-08-03T15:06:58.050Z,26.84
2022-08-03T15:09:21.242Z,27.16
2022-08-03T15:11:25.051Z,27.24
2022-08-03T15:13:27.198Z,27.01
2022-08-03T15:15:30.626Z,26.89
2022-08-03T15:17:32.859Z,26.91
2022-08-03T15:20:00.465Z,26.89
2022-08-03T15:22:01.046Z,26.97
2022-08-03T15:24:05.216Z,26.96
2022-08-03T15:26:32.964Z,26.97
2022-08-03T15:28:31.776Z,26.84
2022-08-03T15:30:37.112Z,26.81
2022-08-03T15:32:39.063Z,26.68
2022-08-03T15:34:51.459Z,26.77
2022-08-03T15:36:54.434Z,26.80
2022-08-03T15:38:56.445Z,26.72
2022-08-03T15:40:59.391Z,26.64
2022-08-03T15:43:01.988Z,26.63
2022-08-03T15:45:04.554Z,26.71
2022-08-03T15:47:06.552Z,26.70
2022-08-03T15:49:11.688Z,26.72
2022-08-03T15:51:14.286Z,26.74
2022-08-03T15:53:16.206Z,26.63
2022-08-03T15:55:19.241Z,26.66
2022-08-03T15:57:22.712Z,26.60
2022-08-03T15:59:25.014Z,26.67
2022-08-03T16:01:28.542Z,26.56
2022-08-03T16:03:37.309Z,26.50
2022-08-03T16:05:39.485Z,26.41
2022-08-03T16:08:03.931Z,26.50
2022-08-03T16:10:07.348Z,26.55
2022-08-03T16:12:16.002Z,26.45
2022-08-03T16:14:33.335Z,26.36
2022-08-03T16:16:41.304Z,26.36
2022-08-03T16:18:43.289Z,26.39
2022-08-03T16:20:45.743Z,26.41
2022-08-03T16:22:49.356Z,26.33
2022-08-03T16:24:52.935Z,26.38
2022-08-03T16:26:55.104Z,26.34
2022-08-03T16:29:04.205Z,26.15
2022-08-03T16:31:13.842Z,26.18
2022-08-03T16:33:17.062Z,26.18
2022-08-03T16:35:21.157Z,26.15
2022-08-03T16:37:39.808Z,26.15
2022-08-03T16:39:41.910Z,26.19
2022-08-03T16:41:54.302Z,25.95
2022-08-03T16:44:08.027Z,25.92
2022-08-03T16:46:11.888Z,25.96
2022-08-03T16:48:16.125Z,25.96
2022-08-03T16:50:20.046Z,25.80
2022-08-03T16:52:22.861Z,25.84
2022-08-03T16:54:24.905Z,25.68
2022-08-03T16:56:30.132Z,25.70
2022-08-03T16:58:42.283Z,25.76
2022-08-03T17:00:47.271Z,25.73
2022-08-03T17:02:56.848Z,25.73
2022-08-03T17:04:58.804Z,25.75
2022-08-03T17:07:02.439Z,25.68
2022-08-03T17:09:12.497Z,25.61
2022-08-03T17:11:17.561Z,25.37
2022-08-03T17:13:22.056Z,25.32
2022-08-03T17:15:38.460Z,25.29
2022-08-03T17:18:07.991Z,25.08
2022-08-03T17:20:15.621Z,24.72
2022-08-03T17:22:23.430Z,24.85
2022-08-03T17:24:33.380Z,24.76
2022-08-03T17:26:43.462Z,24.72
2022-08-03T17:28:57.425Z,24.69
2022-08-03T17:31:23.373Z,24.28
2022-08-03T17:33:35.521Z,23.89
2022-08-03T17:35:38.521Z,23.81
2022-08-03T17:37:57.607Z,23.79
2022-08-03T17:40:03.678Z,23.78
2022-08-03T17:42:29.558Z,23.66
2022-08-03T17:44:41.247Z,23.41
2022-08-03T17:46:47.946Z,23.26
2022-08-03T17:48:51.962Z,23.28
2022-08-03T17:51:00.843Z,23.30
2022-08-03T17:53:15.372Z,23.14
2022-08-03T17:55:57.535Z,23.24
2022-08-03T17:58:02.256Z,23.09
2022-08-03T18:00:45.814Z,22.96
2022-08-03T18:03:13.227Z,22.89
2022-08-03T18:05:18.549Z,22.78
2022-08-03T18:07:41.342Z,22.73
2022-08-03T18:10:06.302Z,22.28
2022-08-03T18:12:15.311Z,22.27
2022-08-03T18:14:29.708Z,22.00
2022-08-03T18:16:38.861Z,21.89
2022-08-03T18:18:45.036Z,21.86
2022-08-03T18:20:51.882Z,21.74
2022-08-03T18:22:55.257Z,21.60
2022-08-03T18:24:59.206Z,21.68
2022-08-03T18:27:06.508Z,21.67
2022-08-03T18:29:12.506Z,21.67
2022-08-03T18:31:59.944Z,21.58
2022-08-03T18:34:16.178Z,21.63
2022-08-03T18:36:03.864Z,21.66
2022-08-03T18:38:10.435Z,21.59
2022-08-03T18:40:13.488Z,21.45
2022-08-03T18:42:25.884Z,21.36
2022-08-03T18:44:52.793Z,21.33
2022-08-03T18:47:16.112Z,21.06
2022-08-03T18:49:24.518Z,20.89
2022-08-03T18:51:43.375Z,20.98
2022-08-03T18:54:11.869Z,20.73
2022-08-03T18:56:54.032Z,20.83
2022-08-03T19:01:57.525Z,20.43
2022-08-03T19:04:14.384Z,20.43
2022-08-03T19:06:23.941Z,20.41
2022-08-03T19:08:48.770Z,20.30
2022-08-03T19:11:06.083Z,20.13
2022-08-03T19:13:38.384Z,20.21
2022-08-03T19:15:51.412Z,20.11
2022-08-03T19:17:57.785Z,19.98
2022-08-03T19:20:03.967Z,19.84
2022-08-03T19:22:11.217Z,19.83
2022-08-03T19:24:14.323Z,19.72
2022-08-03T19:26:31.048Z,19.76
2022-08-03T19:28:35.381Z,19.59
2022-08-03T19:30:40.728Z,19.64
2022-08-03T19:32:50.691Z,19.65
2022-08-03T19:34:53.569Z,19.51
2022-08-03T19:36:59.790Z,19.47
2022-08-03T19:39:05.550Z,19.38
2022-08-03T19:41:18.363Z,19.41
2022-08-03T19:43:33.100Z,19.36
2022-08-03T19:45:52.685Z,19.35
2022-08-03T19:48:12.203Z,19.33
2022-08-03T19:50:15.719Z,19.25
2022-08-03T19:52:24.203Z,19.14
2022-08-03T19:54:32.290Z,19.14
2022-08-03T19:56:42.583Z,19.08
2022-08-03T19:58:46.802Z,19.05
2022-08-03T20:00:56.080Z,19.02
2022-08-03T20:02:58.944Z,18.90
2022-08-03T20:05:02.214Z,18.86
2022-08-03T20:07:05.762Z,18.91
2022-08-03T20:09:12.227Z,18.94
2022-08-03T20:11:20.677Z,18.98
2022-08-03T20:13:39.031Z,18.96
2022-08-03T20:16:08.991Z,18.92
2022-08-03T20:18:16.940Z,18.89
2022-08-03T20:20:32.652Z,18.91
2022-08-03T20:22:39.191Z,18.85
2022-08-03T20:24:52.725Z,18.73
2022-08-03T20:27:05.177Z,18.80
2022-08-03T20:29:17.286Z,18.82
2022-08-03T20:31:32.440Z,18.80
2022-08-03T20:33:46.687Z,18.64
2022-08-03T20:35:56.724Z,18.69
2022-08-03T20:38:13.127Z,18.72
2022-08-03T20:40:27.914Z,18.79
2022-08-03T20:42:31.898Z,18.67
2022-08-03T20:44:42.626Z,18.60
2022-08-03T20:47:00.793Z,18.52
2022-08-03T20:49:13.626Z,18.50
2022-08-03T20:51:49.200Z,18.48
2022-08-03T20:54:00.219Z,18.43
2022-08-03T20:56:09.698Z,18.36
2022-08-03T20:58:12.799Z,18.32
2022-08-03T21:00:22.253Z,18.35
2022-08-03T21:02:30.053Z,18.29
2022-08-03T21:04:40.523Z,18.32
2022-08-03T21:07:01.967Z,18.33
2022-08-03T21:09:17.948Z,18.32
2022-08-03T21:11:28.240Z,18.23
2022-08-03T21:13:00.964Z,20.75
2022-08-03T21:13:55.417Z,18.21
2022-08-03T21:16:12.455Z,18.28
2022-08-03T21:18:19.273Z,18.30
2022-08-03T21:20:31.177Z,18.21
2022-08-03T21:22:37.470Z,18.22
2022-08-03T21:24:43.203Z,18.24
2022-08-03T21:26:48.866Z,18.19
2022-08-03T21:28:54.181Z,18.11
2022-08-03T21:33:37.906Z,18.91
2022-08-03T21:35:51.053Z,18.84
2022-08-03T21:38:14.238Z,19.10
2022-08-03T21:40:20.520Z,19.09
2022-08-03T21:42:25.557Z,18.95
2022-08-03T21:44:29.608Z,19.13
2022-08-03T21:46:44.311Z,19.22
2022-08-03T21:50:05.077Z,19.26
2022-08-03T21:51:34.980Z,19.39
2022-08-03T21:54:03.206Z,19.48
2022-08-03T21:56:21.265Z,19.53
2022-08-03T21:58:31.543Z,19.67
2022-08-03T22:00:43.945Z,19.75
2022-08-03T22:03:15.202Z,19.78
2022-08-03T22:05:28.850Z,19.81
2022-08-03T22:07:46.424Z,19.86
2022-08-03T22:09:50.929Z,19.89
2022-08-03T22:11:55.572Z,20.02
2022-08-03T22:13:57.615Z,20.07
2022-08-03T22:15:59.917Z,20.06
2022-08-03T22:18:04.986Z,20.10
2022-08-03T22:20:10.749Z,20.08
2022-08-03T22:22:17.917Z,20.17
2022-08-03T22:24:24.172Z,20.13
2022-08-03T22:26:32.444Z,20.20
2022-08-03T22:28:44.833Z,20.08
2022-08-03T22:30:48.289Z,20.12
2022-08-03T22:32:54.114Z,20.27
2022-08-03T22:34:59.665Z,20.29
2022-08-03T22:37:05.166Z,20.33
2022-08-03T22:39:07.897Z,20.34
2022-08-03T22:41:09.888Z,20.36
2022-08-03T22:43:11.950Z,20.37
2022-08-03T22:46:08.014Z,20.39
2022-08-03T22:47:41.335Z,20.42
2022-08-03T22:49:44.090Z,20.37
2022-08-03T22:51:47.013Z,20.41
2022-08-03T22:53:51.718Z,20.47
2022-08-03T22:55:54.068Z,20.42
2022-08-03T22:57:56.460Z,20.52
2022-08-03T22:59:59.045Z,20.43
2022-08-03T23:02:19.996Z,20.35
2022-08-03T23:04:25.382Z,20.41
2022-08-03T23:06:31.206Z,20.32
2022-08-03T23:08:34.221Z,20.22
2022-08-03T23:10:43.685Z,20.12
2022-08-03T23:12:50.176Z,20.12
2022-08-03T23:14:56.393Z,20.11
2022-08-03T23:17:03.508Z,20.05
2022-08-03T23:19:17.105Z,20.08
2022-08-03T23:22:00.077Z,19.98
2022-08-03T23:23:53.128Z,20.03
2022-08-03T23:26:01.841Z,20.09
2022-08-03T23:28:06.045Z,20.06
2022-08-03T23:30:10.285Z,20.06
2022-08-03T23:32:13.387Z,20.04
2022-08-03T23:34:36.245Z,19.93
2022-08-03T23:36:40.845Z,19.96
2022-08-03T23:38:43.797Z,19.87
2022-08-03T23:40:46.799Z,19.80
2022-08-03T23:42:53.542Z,19.68
2022-08-03T23:44:59.326Z,19.61
2022-08-03T23:47:07.756Z,19.57
2022-08-03T23:49:10.718Z,19.47
2022-08-03T23:51:50.644Z,19.38
2022-08-03T23:54:03.818Z,19.32
2022-08-03T23:56:08.688Z,19.27
2022-08-03T23:58:25.489Z,19.19
